Terminal Aerodrome Forecast
Issued by NWS

Home | Current Version | Previous Version | Text Only | Print | Product List | Glossary On
Versions: 1 2 3 4 5 6 7 8 9 10 11 12 13 14 15 16 17 18 19 20 21 22 23 24 25 26
554
FTUS44 KLIX 071720
TAFMSY
TAF
KMSY 071720Z 0718/0818 09004KT P6SM BKN020
     FM072300 07006KT P6SM BKN035
     FM080300 08006KT P6SM BKN020
     FM081000 06008KT P6SM OVC008
     FM081500 03012KT P6SM OVC010=

USA.gov is the U.S. government's official web portal to all federal, state and local government web resources and services.